Time;durP1;ratioP1;P1;durP2;ratioP2;P2;SDS_P1;SDS_P2;PMS_P1;PMS_P2;Temp;Humidity;BMP_temperature;BMP_pressure;BME280_temperature;BME280_humidity;BME280_pressure;Samples;Min_cycle;Max_cycle;Signal;HPM_P1;HPM_P2
2021/10/12 00:01:41;;;;;;;37.03;24.55;;;;;;;7.69;56.14;99467.33;1784588;79;21024;-38
2021/10/12 00:04:07;;;;;;;41.00;25.10;;;;;;;7.69;55.87;99468.13;1784410;79;21102;-38
2021/10/12 00:06:34;;;;;;;39.83;24.63;;;;;;;7.69;55.73;99460.03;1784268;79;20910;-38
2021/10/12 00:09:01;;;;;;;41.42;25.23;;;;;;;7.72;55.56;99457.99;1785419;79;21016;-38
2021/10/12 00:11:27;;;;;;;36.48;23.15;;;;;;;7.74;55.42;99460.36;1790011;80;20886;-38
2021/10/12 00:13:54;;;;;;;40.45;23.83;;;;;;;7.75;55.29;99455.16;1790034;80;21044;-38
2021/10/12 00:16:21;;;;;;;35.45;23.75;;;;;;;7.77;55.25;99458.33;1790179;80;21151;-38
2021/10/12 00:18:48;;;;;;;39.50;24.87;;;;;;;7.79;55.21;99458.78;1789892;80;21270;-38
2021/10/12 00:21:15;;;;;;;41.88;24.80;;;;;;;7.78;55.17;99456.65;1789297;80;20960;-38
2021/10/12 00:23:41;;;;;;;41.55;24.50;;;;;;;7.78;55.15;99447.20;1789590;79;20929;-38
2021/10/12 00:26:10;;;;;;;46.02;25.20;;;;;;;7.79;55.13;99450.69;1789413;80;20981;-39
2021/10/12 00:28:36;;;;;;;40.33;25.92;;;;;;;7.79;55.08;99443.95;1789571;80;21144;-38
2021/10/12 00:31:03;;;;;;;40.40;24.72;;;;;;;7.75;55.18;99437.63;1789444;80;20941;-38
2021/10/12 00:33:31;;;;;;;40.85;25.68;;;;;;;7.73;55.21;99439.89;1789592;79;21079;-38
2021/10/12 00:35:58;;;;;;;36.90;25.97;;;;;;;7.71;55.26;99437.52;1789434;80;21005;-38
2021/10/12 00:38:25;;;;;;;39.40;24.45;;;;;;;7.69;55.44;99434.95;1789753;79;21565;-38
2021/10/12 00:40:52;;;;;;;39.08;24.60;;;;;;;7.68;55.72;99438.77;1789678;80;21132;-38
2021/10/12 00:43:25;;;;;;;40.78;25.72;;;;;;;7.66;55.80;99433.70;1789656;80;21582;-38
2021/10/12 00:45:49;;;;;;;41.77;25.08;;;;;;;7.66;55.66;99430.21;1789248;79;21276;-38
2021/10/12 00:48:15;;;;;;;38.95;24.92;;;;;;;7.65;55.52;99430.02;1789421;80;21025;-38
2021/10/12 00:50:42;;;;;;;39.08;25.12;;;;;;;7.64;55.53;99429.22;1789598;79;21025;-38
2021/10/12 00:53:09;;;;;;;42.67;26.17;;;;;;;7.63;55.66;99429.55;1789423;79;21924;-38
2021/10/12 00:55:35;;;;;;;39.80;25.35;;;;;;;7.60;55.61;99423.48;1789333;80;20964;-38
2021/10/12 00:58:02;;;;;;;37.42;25.62;;;;;;;7.57;55.70;99418.75;1789282;80;20973;-38
2021/10/12 01:00:28;;;;;;;37.60;26.45;;;;;;;7.55;55.75;99420.42;1789360;80;21491;-38
2021/10/12 01:02:55;;;;;;;44.88;27.95;;;;;;;7.54;55.82;99420.78;1789397;80;21076;-38
2021/10/12 01:05:21;;;;;;;44.27;27.93;;;;;;;7.51;55.98;99414.14;1789447;80;21127;-38
2021/10/12 01:07:49;;;;;;;45.43;27.13;;;;;;;7.48;56.00;99410.78;1769590;80;20997;-38
2021/10/12 01:10:17;;;;;;;45.43;27.98;;;;;;;7.49;55.99;99403.48;1789293;80;21075;-38
2021/10/12 01:12:43;;;;;;;48.13;28.25;;;;;;;7.50;56.02;99416.64;1789371;80;20997;-38
2021/10/12 01:15:11;;;;;;;44.77;29.07;;;;;;;7.50;55.93;99408.54;1789340;79;21548;-38
2021/10/12 01:17:38;;;;;;;43.10;28.85;;;;;;;7.49;55.87;99401.56;1789613;80;21842;-39
2021/10/12 01:20:11;;;;;;;50.92;29.42;;;;;;;7.48;55.90;99404.59;1789584;79;21500;-38
2021/10/12 01:22:46;;;;;;;47.88;29.10;;;;;;;7.47;55.91;99397.62;1789933;80;21531;-39
2021/10/12 01:25:15;;;;;;;48.68;29.72;;;;;;;7.47;55.86;99401.66;1789530;80;20965;-38
2021/10/12 01:27:41;;;;;;;46.33;29.70;;;;;;;7.43;55.85;99392.91;1789851;79;21052;-39
2021/10/12 01:30:09;;;;;;;45.08;28.75;;;;;;;7.38;55.84;99393.13;1789329;80;21128;-38
2021/10/12 01:32:42;;;;;;;46.90;30.65;;;;;;;7.35;55.88;99395.16;1789297;80;21016;-38
2021/10/12 01:35:09;;;;;;;50.85;30.37;;;;;;;7.35;55.88;99387.63;1788988;79;20949;-38
2021/10/12 01:37:37;;;;;;;47.27;29.40;;;;;;;7.33;56.19;99391.22;1789472;80;20949;-38
2021/10/12 01:40:06;;;;;;;43.83;28.20;;;;;;;7.31;56.25;99388.84;1789302;80;20966;-39
2021/10/12 01:42:34;;;;;;;48.48;29.10;;;;;;;7.32;56.34;99387.73;1787344;79;21116;-39
2021/10/12 01:45:05;;;;;;;48.50;28.55;;;;;;;7.30;56.44;99381.91;1785275;80;21019;-38
2021/10/12 01:47:31;;;;;;;46.42;28.35;;;;;;;7.32;56.31;99378.84;1785789;80;21498;-38
2021/10/12 01:49:58;;;;;;;45.10;28.12;;;;;;;7.34;56.22;99373.92;1785319;80;21003;-38
2021/10/12 01:52:24;;;;;;;45.83;29.25;;;;;;;7.35;56.08;99377.63;1785825;80;21067;-38
2021/10/12 01:54:51;;;;;;;46.88;28.55;;;;;;;7.38;55.98;99376.16;1785557;80;21956;-38
2021/10/12 01:57:18;;;;;;;47.98;28.45;;;;;;;7.39;55.97;99373.70;1786022;80;20968;-38
2021/10/12 01:59:46;;;;;;;45.95;27.98;;;;;;;7.40;55.98;99377.97;1785682;80;21060;-38
2021/10/12 02:02:12;;;;;;;45.48;29.35;;;;;;;7.40;55.89;99372.02;1785898;80;21569;-38
2021/10/12 02:04:39;;;;;;;48.17;29.27;;;;;;;7.38;55.85;99368.86;1785737;80;21020;-38
2021/10/12 02:07:05;;;;;;;42.45;27.85;;;;;;;7.39;55.82;99370.44;1785590;80;21081;-38
2021/10/12 02:09:32;;;;;;;42.95;27.73;;;;;;;7.35;55.84;99369.55;1783473;80;20944;-38
2021/10/12 02:11:59;;;;;;;41.15;27.80;;;;;;;7.35;55.84;99366.06;1783035;79;21495;-38
2021/10/12 02:14:25;;;;;;;46.88;28.83;;;;;;;7.32;55.86;99364.80;1786935;80;21039;-38
2021/10/12 02:16:52;;;;;;;48.20;29.18;;;;;;;7.30;56.02;99357.63;1787084;80;20990;-38
2021/10/12 02:19:19;;;;;;;43.28;27.75;;;;;;;7.29;56.26;99361.45;1786868;79;21154;-38
2021/10/12 02:21:45;;;;;;;44.13;27.82;;;;;;;7.29;56.42;99359.31;1786825;80;20992;-38
2021/10/12 02:24:12;;;;;;;49.15;29.20;;;;;;;7.29;56.60;99364.14;1787143;79;21068;-38
2021/10/12 02:26:38;;;;;;;40.25;27.40;;;;;;;7.30;56.47;99359.54;1786812;80;20969;-39
2021/10/12 02:29:05;;;;;;;46.40;28.30;;;;;;;7.32;56.34;99352.67;1786818;79;21025;-38
2021/10/12 02:31:32;;;;;;;51.85;29.75;;;;;;;7.33;56.24;99356.16;1786928;79;21068;-38
2021/10/12 02:33:58;;;;;;;45.65;28.00;;;;;;;7.33;56.21;99352.91;1786940;80;20910;-38
2021/10/12 02:36:24;;;;;;;45.40;28.73;;;;;;;7.32;56.21;99348.62;1786871;79;20996;-38
2021/10/12 02:38:51;;;;;;;45.28;28.90;;;;;;;7.30;56.18;99342.80;1787154;80;20901;-39
2021/10/12 02:41:17;;;;;;;45.48;29.45;;;;;;;7.28;56.18;99336.95;1787002;80;20974;-38
2021/10/12 02:43:44;;;;;;;49.03;28.77;;;;;;;7.27;56.26;99343.45;1786965;79;21148;-38
2021/10/12 02:46:12;;;;;;;49.63;30.50;;;;;;;7.24;56.36;99339.31;1787025;79;21009;-38
2021/10/12 02:48:38;;;;;;;49.10;30.88;;;;;;;7.23;56.44;99337.73;1787183;80;21131;-38
2021/10/12 02:51:04;;;;;;;45.10;30.05;;;;;;;7.21;56.52;99335.36;1786843;79;21021;-38
2021/10/12 02:53:31;;;;;;;45.43;28.07;;;;;;;7.20;56.61;99331.67;1787140;80;21076;-38
2021/10/12 02:55:57;;;;;;;46.20;29.40;;;;;;;7.19;56.68;99330.89;1786980;79;21141;-38
2021/10/12 02:58:24;;;;;;;45.00;29.00;;;;;;;7.17;56.83;99329.08;1786654;79;21021;-38
2021/10/12 03:00:50;;;;;;;48.68;28.73;;;;;;;7.16;56.84;99320.79;1786858;79;21044;-38
2021/10/12 03:03:17;;;;;;;48.23;29.67;;;;;;;7.19;56.79;99324.15;1786899;80;21012;-38
2021/10/12 03:05:44;;;;;;;46.35;29.10;;;;;;;7.21;56.70;99329.21;1787075;80;21005;-38
2021/10/12 03:08:11;;;;;;;45.43;29.00;;;;;;;7.23;56.66;99322.91;1786754;80;21133;-38
2021/10/12 03:10:38;;;;;;;45.00;29.37;;;;;;;7.23;56.59;99321.00;1788506;80;21012;-38
2021/10/12 03:13:04;;;;;;;43.33;28.95;;;;;;;7.25;56.57;99325.50;1789487;79;20960;-38
2021/10/12 03:15:31;;;;;;;46.28;29.02;;;;;;;7.27;56.55;99319.19;1789272;80;20997;-38
2021/10/12 03:17:59;;;;;;;47.05;28.35;;;;;;;7.27;56.52;99317.84;1789342;79;21012;-38
2021/10/12 03:20:26;;;;;;;48.05;29.85;;;;;;;7.27;56.61;99314.36;1789356;80;21124;-38
2021/10/12 03:22:53;;;;;;;45.58;29.40;;;;;;;7.25;56.59;99310.67;1789817;79;20944;-38
2021/10/12 03:25:19;;;;;;;47.45;28.83;;;;;;;7.27;56.64;99308.97;1789611;79;21534;-38
2021/10/12 03:27:46;;;;;;;47.98;29.98;;;;;;;7.25;56.71;99307.97;1789790;80;20989;-39
2021/10/12 03:30:12;;;;;;;44.40;28.55;;;;;;;7.24;56.72;99301.00;1789615;80;20996;-38
2021/10/12 03:32:39;;;;;;;43.55;28.10;;;;;;;7.25;56.75;99299.89;1789658;80;21109;-38
2021/10/12 03:35:07;;;;;;;44.45;29.20;;;;;;;7.25;56.99;99295.05;1789122;80;20968;-38
2021/10/12 03:37:34;;;;;;;46.13;29.12;;;;;;;7.24;57.06;99292.91;1789767;79;21769;-38
2021/10/12 03:40:01;;;;;;;43.73;29.27;;;;;;;7.23;57.27;99293.24;1789240;79;21025;-38
2021/10/12 03:42:27;;;;;;;46.53;28.10;;;;;;;7.24;57.13;99291.56;1789285;79;21499;-38
2021/10/12 03:44:54;;;;;;;49.10;29.63;;;;;;;7.25;57.15;99285.61;1789274;80;21141;-38
2021/10/12 03:47:20;;;;;;;44.40;28.90;;;;;;;7.27;57.27;99284.70;1789368;80;21031;-38
2021/10/12 03:49:47;;;;;;;43.73;29.42;;;;;;;7.27;57.42;99276.61;1789362;80;21534;-38
2021/10/12 03:52:14;;;;;;;49.70;29.07;;;;;;;7.25;57.53;99275.62;1789389;79;20965;-38
2021/10/12 03:54:40;;;;;;;52.95;30.20;;;;;;;7.24;57.42;99274.04;1789371;80;21874;-38
2021/10/12 03:57:07;;;;;;;47.90;30.52;;;;;;;7.23;57.27;99275.72;1789485;79;21842;-38
2021/10/12 03:59:34;;;;;;;46.18;30.15;;;;;;;7.24;57.17;99279.98;1789542;80;20910;-38
2021/10/12 04:02:00;;;;;;;49.67;30.30;;;;;;;7.22;57.17;99277.63;1789764;80;21071;-38
2021/10/12 04:04:27;;;;;;;50.08;30.82;;;;;;;7.21;57.14;99277.39;1789451;79;21794;-38
2021/10/12 04:06:55;;;;;;;49.25;30.25;;;;;;;7.21;57.17;99279.33;1789768;80;21021;-38
2021/10/12 04:09:22;;;;;;;48.42;30.75;;;;;;;7.20;57.25;99281.23;1789196;79;21968;-38
2021/10/12 04:11:49;;;;;;;51.85;31.20;;;;;;;7.21;57.29;99277.98;1773134;81;20946;-38
2021/10/12 04:14:16;;;;;;;47.33;30.95;;;;;;;7.20;57.32;99270.45;1773114;79;21038;-38
2021/10/12 04:16:44;;;;;;;44.53;30.88;;;;;;;7.19;57.33;99266.18;1773083;79;20985;-38
2021/10/12 04:19:11;;;;;;;51.60;30.68;;;;;;;7.18;57.39;99263.25;1767261;81;21037;-38
2021/10/12 04:21:37;;;;;;;46.37;31.02;;;;;;;7.18;57.41;99265.95;1772778;81;21101;-38
2021/10/12 04:24:05;;;;;;;49.73;32.10;;;;;;;7.18;57.42;99263.81;1743858;81;21500;-39
2021/10/12 04:26:31;;;;;;;47.27;30.62;;;;;;;7.17;57.49;99263.02;1772783;81;21552;-38
2021/10/12 04:28:58;;;;;;;46.77;30.50;;;;;;;7.17;57.53;99258.98;1772695;81;21051;-38
2021/10/12 04:31:25;;;;;;;53.55;30.75;;;;;;;7.18;57.60;99261.91;1773094;79;21002;-38
2021/10/12 04:33:52;;;;;;;48.17;32.40;;;;;;;7.20;57.63;99259.67;1767109;81;21766;-38
2021/10/12 04:36:19;;;;;;;54.85;32.23;;;;;;;7.19;57.66;99261.34;1772839;81;20957;-38
2021/10/12 04:38:46;;;;;;;47.98;30.92;;;;;;;7.20;57.66;99258.32;1773038;81;21476;-38
2021/10/12 04:41:12;;;;;;;51.15;31.15;;;;;;;7.21;57.71;99257.17;1772824;79;21088;-38
2021/10/12 04:43:39;;;;;;;51.18;30.00;;;;;;;7.23;57.67;99256.84;1773120;79;20990;-38
2021/10/12 04:46:06;;;;;;;49.30;30.80;;;;;;;7.25;57.60;99258.66;1719698;81;21120;-38
2021/10/12 04:48:32;;;;;;;48.30;29.65;;;;;;;7.25;57.55;99255.39;1773090;81;21014;-38
2021/10/12 04:50:59;;;;;;;51.02;31.50;;;;;;;7.27;57.59;99261.77;1773118;81;21466;-38
2021/10/12 04:53:26;;;;;;;48.58;31.33;;;;;;;7.27;57.63;99256.38;1773073;81;21006;-38
2021/10/12 04:55:53;;;;;;;44.38;30.95;;;;;;;7.29;57.60;99256.84;1773215;79;20985;-38
2021/10/12 04:58:20;;;;;;;49.90;30.92;;;;;;;7.29;57.60;99249.54;1772999;81;21108;-38
2021/10/12 05:00:46;;;;;;;47.80;31.02;;;;;;;7.31;57.63;99249.97;1772939;81;21510;-38
2021/10/12 05:03:13;;;;;;;47.03;31.05;;;;;;;7.32;57.61;99248.85;1772900;81;21018;-38
2021/10/12 05:05:40;;;;;;;49.23;30.80;;;;;;;7.34;57.63;99248.52;1772830;80;20981;-38
2021/10/12 05:08:09;;;;;;;50.52;30.85;;;;;;;7.35;57.68;99240.66;1772868;79;20925;-38
2021/10/12 05:10:35;;;;;;;48.58;31.48;;;;;;;7.37;57.68;99244.57;1778453;79;21805;-38
2021/10/12 05:13:03;;;;;;;48.23;30.70;;;;;;;7.37;57.80;99236.48;1786736;80;21008;-38
2021/10/12 05:15:30;;;;;;;43.95;29.50;;;;;;;7.38;57.76;99236.70;1787017;79;20965;-38
2021/10/12 05:18:02;;;;;;;47.62;30.75;;;;;;;7.41;57.80;99237.36;1786883;79;20961;-38
2021/10/12 05:20:27;;;;;;;45.90;29.87;;;;;;;7.43;57.87;99231.64;1786734;80;21570;-38
2021/10/12 05:22:53;;;;;;;46.33;30.32;;;;;;;7.47;57.88;99234.43;1786929;80;21152;-38
2021/10/12 05:25:20;;;;;;;50.40;31.82;;;;;;;7.51;57.80;99229.92;1786899;80;21072;-38
2021/10/12 05:27:48;;;;;;;47.78;30.30;;;;;;;7.55;57.81;99229.48;1787012;80;21864;-39
2021/10/12 05:30:14;;;;;;;44.80;29.00;;;;;;;7.58;57.96;99223.39;1786858;79;21028;-38
2021/10/12 05:32:43;;;;;;;47.58;29.75;;;;;;;7.64;57.91;99228.77;1787142;80;21029;-39
2021/10/12 05:35:09;;;;;;;46.55;29.67;;;;;;;7.69;57.94;99229.88;1787021;80;21114;-38
2021/10/12 05:37:37;;;;;;;47.27;29.18;;;;;;;7.75;57.91;99229.84;1787022;80;20988;-39
2021/10/12 05:40:05;;;;;;;45.60;29.37;;;;;;;7.80;57.88;99231.73;1787031;80;20981;-39
2021/10/12 05:42:32;;;;;;;49.75;28.98;;;;;;;7.88;57.88;99234.08;1787386;80;21522;-38
2021/10/12 05:44:59;;;;;;;45.15;28.27;;;;;;;7.96;57.88;99229.64;1786781;80;21005;-38
2021/10/12 05:47:25;;;;;;;43.28;29.12;;;;;;;8.03;57.95;99233.33;1787213;80;21094;-39
2021/10/12 05:49:52;;;;;;;40.70;27.77;;;;;;;8.10;58.04;99231.37;1786760;79;20986;-38
2021/10/12 05:52:19;;;;;;;46.90;28.05;;;;;;;8.16;58.23;99230.78;1787011;80;21099;-38
2021/10/12 05:55:13;;;;;;;42.55;28.17;;;;;;;8.24;58.30;99234.44;1786865;79;21044;-38
2021/10/12 05:57:34;;;;;;;40.28;28.15;;;;;;;8.31;58.38;99235.23;1781234;80;21033;-38
2021/10/12 05:59:49;;;;;;;42.98;27.80;;;;;;;8.39;58.43;99234.27;1785166;80;21125;-38
2021/10/12 06:02:16;;;;;;;42.65;27.77;;;;;;;8.48;58.57;99233.53;1786787;80;21016;-38
2021/10/12 06:04:42;;;;;;;38.75;26.33;;;;;;;8.56;58.37;99232.59;1786743;79;21012;-38
2021/10/12 06:07:10;;;;;;;42.33;27.70;;;;;;;8.65;58.38;99226.44;1786694;80;20894;-38
2021/10/12 06:09:36;;;;;;;42.20;27.50;;;;;;;8.76;58.32;99226.70;1780921;79;21020;-38
2021/10/12 06:12:05;;;;;;;42.27;27.25;;;;;;;8.87;58.19;99227.16;1786936;79;21564;-38
2021/10/12 06:14:33;;;;;;;45.23;27.62;;;;;;;8.96;58.19;99225.05;1787005;79;21002;-38
2021/10/12 06:17:00;;;;;;;42.93;26.85;;;;;;;9.08;58.09;99224.95;1787050;79;20984;-38
2021/10/12 06:19:27;;;;;;;43.78;26.37;;;;;;;9.17;58.01;99232.86;1786917;79;21037;-38
2021/10/12 06:21:53;;;;;;;38.45;25.08;;;;;;;9.25;58.05;99222.41;1787010;79;21012;-38
2021/10/12 06:24:20;;;;;;;38.85;25.32;;;;;;;9.34;58.00;99219.52;1786907;80;21810;-38
2021/10/12 06:26:46;;;;;;;38.90;24.77;;;;;;;9.41;57.87;99218.30;1787143;80;21013;-38
2021/10/12 06:29:13;;;;;;;39.75;25.52;;;;;;;9.48;57.83;99222.52;1786716;80;21019;-38
2021/10/12 06:31:40;;;;;;;36.90;24.47;;;;;;;9.53;57.87;99224.38;1787006;80;21484;-38
2021/10/12 06:34:06;;;;;;;43.08;25.00;;;;;;;9.60;58.00;99226.43;1786891;79;20982;-38
2021/10/12 06:36:33;;;;;;;40.30;25.75;;;;;;;9.70;57.95;99224.52;1787039;79;21111;-38
2021/10/12 06:39:00;;;;;;;44.40;26.95;;;;;;;9.77;57.89;99222.53;1786834;80;21064;-38
2021/10/12 06:41:27;;;;;;;40.78;26.65;;;;;;;9.85;57.99;99222.30;1787171;80;21550;-38
2021/10/12 06:43:53;;;;;;;43.38;27.55;;;;;;;9.94;57.84;99225.56;1786947;79;21522;-38
2021/10/12 06:46:20;;;;;;;44.10;28.73;;;;;;;10.02;57.96;99219.13;1781475;80;21049;-38
2021/10/12 06:48:48;;;;;;;50.15;28.77;;;;;;;10.10;57.92;99216.00;1786783;79;20914;-38
2021/10/12 06:51:15;;;;;;;42.90;27.75;;;;;;;10.19;57.64;99218.50;1786772;79;21523;-38
2021/10/12 06:53:45;;;;;;;46.20;26.75;;;;;;;10.28;57.57;99213.63;1787198;79;21015;-38
2021/10/12 06:56:10;;;;;;;32.85;24.43;;;;;;;10.38;57.45;99215.74;1786674;80;20890;-38
2021/10/12 06:58:37;;;;;;;36.25;22.87;;;;;;;10.47;57.25;99217.64;1787169;80;21080;-38
2021/10/12 07:01:03;;;;;;;36.00;22.15;;;;;;;10.55;57.17;99209.86;1787388;80;21770;-38
2021/10/12 07:03:30;;;;;;;33.33;20.85;;;;;;;10.67;56.86;99215.64;1786866;80;20957;-38
2021/10/12 07:05:57;;;;;;;40.23;21.48;;;;;;;10.75;56.65;99212.67;1786844;80;20949;-38
2021/10/12 07:08:24;;;;;;;42.38;22.02;;;;;;;10.84;56.50;99209.13;1786934;80;20970;-38
2021/10/12 07:10:54;;;;;;;34.98;21.90;;;;;;;10.92;56.38;99208.68;1787369;79;20961;-39
2021/10/12 07:13:26;;;;;;;35.60;20.23;;;;;;;11.02;56.40;99216.77;1789360;80;21522;-38
2021/10/12 07:15:50;;;;;;;30.92;19.98;;;;;;;11.11;56.36;99209.93;1788996;79;20926;-39
2021/10/12 07:18:18;;;;;;;29.75;19.35;;;;;;;11.22;56.35;99210.08;1789296;79;21021;-38
2021/10/12 07:20:45;;;;;;;27.80;18.12;;;;;;;11.34;56.21;99215.27;1789196;80;21021;-39
2021/10/12 07:23:11;;;;;;;29.40;18.17;;;;;;;11.46;55.97;99208.27;1789276;79;21004;-38
2021/10/12 07:25:38;;;;;;;32.93;18.60;;;;;;;11.60;55.86;99200.30;1789489;79;21118;-39
2021/10/12 07:28:05;;;;;;;32.48;19.15;;;;;;;11.78;55.76;99205.17;1789106;80;20933;-38
2021/10/12 07:30:32;;;;;;;26.77;17.52;;;;;;;11.94;55.43;99202.46;1789667;80;20964;-38
2021/10/12 07:32:59;;;;;;;26.15;16.55;;;;;;;12.10;55.22;99198.92;1789564;80;20902;-39
2021/10/12 07:35:26;;;;;;;27.60;16.65;;;;;;;12.27;54.54;99199.48;1789663;80;21471;-39
2021/10/12 07:37:55;;;;;;;24.55;17.55;;;;;;;12.39;53.79;99197.25;1789737;80;21089;-38
2021/10/12 07:40:21;;;;;;;23.03;16.60;;;;;;;12.49;53.71;99197.17;1789850;80;20972;-38
2021/10/12 07:42:48;;;;;;;25.40;16.20;;;;;;;12.59;53.59;99198.59;1789690;80;21013;-39
2021/10/12 07:45:15;;;;;;;24.70;15.28;;;;;;;12.70;53.52;99197.91;1789441;79;21011;-39
2021/10/12 07:47:42;;;;;;;24.43;15.50;;;;;;;12.82;53.14;99196.26;1789642;80;21488;-39
2021/10/12 07:50:10;;;;;;;21.45;15.23;;;;;;;12.92;52.74;99198.28;1789154;80;21123;-38
2021/10/12 07:52:37;;;;;;;32.05;15.83;;;;;;;12.99;52.62;99196.38;1789348;80;20999;-38
2021/10/12 07:57:32;;;;;;;25.95;15.90;;;;;;;13.04;52.07;99191.94;1789344;80;21024;-39
2021/10/12 07:59:59;;;;;;;21.07;15.10;;;;;;;13.05;52.02;99194.86;1789301;79;21076;-39
2021/10/12 08:02:25;;;;;;;24.65;14.90;;;;;;;13.04;52.04;99193.30;1789467;80;21123;-39
2021/10/12 08:04:52;;;;;;;26.48;15.45;;;;;;;13.07;52.06;99192.52;1789564;79;21546;-39
2021/10/12 08:07:19;;;;;;;25.35;16.10;;;;;;;13.11;51.83;99187.70;1789251;79;21013;-39
2021/10/12 08:09:45;;;;;;;25.40;15.05;;;;;;;13.14;51.87;99185.02;1789654;79;21543;-39
2021/10/12 08:12:12;;;;;;;25.82;16.45;;;;;;;13.19;51.93;99183.30;1781930;79;21013;-39
2021/10/12 08:14:42;;;;;;;28.10;16.73;;;;;;;13.28;52.05;99187.81;1786978;79;21133;-38
2021/10/12 08:17:08;;;;;;;34.30;19.77;;;;;;;13.38;52.05;99180.86;1786861;79;20956;-39
2021/10/12 08:19:34;;;;;;;31.87;19.42;;;;;;;13.50;51.85;99168.28;1786865;80;20953;-38
2021/10/12 08:22:02;;;;;;;26.97;16.73;;;;;;;13.63;51.59;99174.16;1786863;80;20961;-39
2021/10/12 08:24:28;;;;;;;25.62;16.17;;;;;;;13.75;50.92;99164.26;1783319;79;21088;-39
2021/10/12 08:26:57;;;;;;;28.07;16.40;;;;;;;13.87;50.76;99169.37;1781275;80;21121;-38
2021/10/12 08:29:24;;;;;;;27.05;16.65;;;;;;;13.97;51.18;99165.89;1780983;80;21534;-39
2021/10/12 08:31:52;;;;;;;25.92;16.73;;;;;;;14.08;50.61;99162.61;1781330;80;20988;-39
2021/10/12 08:34:19;;;;;;;27.48;16.82;;;;;;;14.21;50.73;99157.55;1780999;80;21526;-39
2021/10/12 08:36:46;;;;;;;27.13;18.00;;;;;;;14.35;50.63;99152.11;1775096;80;21321;-38
2021/10/12 08:39:12;;;;;;;28.47;17.90;;;;;;;14.47;49.94;99153.70;1780950;80;21093;-38
2021/10/12 08:41:49;;;;;;;26.52;16.82;;;;;;;14.56;49.38;99159.55;1773980;80;21024;-38
2021/10/12 08:44:15;;;;;;;34.27;18.90;;;;;;;14.62;49.20;99149.80;1756117;80;21487;-39
2021/10/12 08:46:43;;;;;;;33.02;18.75;;;;;;;14.68;48.99;99147.64;1755704;80;20934;-39
2021/10/12 08:49:12;;;;;;;32.40;20.25;;;;;;;14.75;48.73;99146.27;1755931;80;21080;-39
2021/10/12 08:51:43;;;;;;;29.90;19.25;;;;;;;14.83;48.58;99142.94;1755860;81;21092;-38
2021/10/12 08:54:12;;;;;;;26.00;18.85;;;;;;;14.93;48.44;99140.78;1754707;81;21557;-39
2021/10/12 08:56:39;;;;;;;28.67;19.45;;;;;;;15.03;47.81;99137.83;1755931;81;21506;-39
2021/10/12 08:59:06;;;;;;;28.62;20.90;;;;;;;15.14;47.75;99131.17;1755673;80;20994;-39
2021/10/12 09:02:00;;;;;;;31.45;19.27;;;;;;;15.31;47.44;99126.80;1756105;81;21770;-39
2021/10/12 09:04:40;;;;;;;26.27;18.45;;;;;;;15.47;47.11;99121.67;1755803;80;21109;-39
2021/10/12 09:07:27;;;;;;;27.60;18.73;;;;;;;15.68;47.01;99115.94;1755390;81;20973;-39
2021/10/12 09:09:56;;;;;;;28.55;17.80;;;;;;;15.83;46.35;99119.54;1754947;80;21020;-39
2021/10/12 09:12:45;;;;;;;24.02;16.70;;;;;;;15.96;46.44;99109.70;1747603;81;21029;-39
2021/10/12 09:15:12;;;;;;;26.30;15.55;;;;;;;16.09;45.96;99116.83;1742250;82;20986;-39
2021/10/12 09:17:41;;;;;;;22.10;14.60;;;;;;;16.20;45.39;99107.19;1742233;81;21124;-39
2021/10/12 09:20:16;;;;;;;18.40;11.93;;;;;;;16.32;45.70;99112.16;1742011;82;21543;-39
2021/10/12 09:23:14;;;;;;;18.65;11.45;;;;;;;16.39;43.81;99107.42;1742358;82;21019;-39
2021/10/12 09:25:44;;;;;;;17.70;10.82;;;;;;;16.40;43.81;99101.36;1742397;82;21024;-39
2021/10/12 09:28:28;;;;;;;19.67;12.47;;;;;;;16.47;43.60;99097.95;1742591;81;21093;-39
2021/10/12 09:30:57;;;;;;;17.67;10.65;;;;;;;16.60;43.85;99094.76;1741882;81;21944;-39
2021/10/12 09:33:23;;;;;;;16.87;11.03;;;;;;;16.67;43.12;99091.34;1742260;82;20914;-39
2021/10/12 09:35:50;;;;;;;16.85;10.88;;;;;;;16.75;43.02;99096.17;1742226;81;20942;-39
2021/10/12 09:38:17;;;;;;;28.17;12.10;;;;;;;16.80;42.33;99092.38;1742252;82;21582;-39
2021/10/12 09:40:45;;;;;;;19.48;12.50;;;;;;;16.80;42.13;99087.48;1742238;82;21010;-39
2021/10/12 09:43:16;;;;;;;19.25;12.30;;;;;;;16.80;42.19;99085.53;1765139;79;21762;-39
2021/10/12 09:45:44;;;;;;;19.42;12.45;;;;;;;16.76;41.52;99079.32;1768211;81;20967;-39
2021/10/12 09:48:34;;;;;;;26.42;13.72;;;;;;;16.68;41.76;99080.59;1768878;81;21067;-39
2021/10/12 09:51:14;;;;;;;21.97;13.43;;;;;;;16.60;41.66;99079.12;1769506;80;21064;-39
2021/10/12 09:53:45;;;;;;;19.40;12.68;;;;;;;16.50;42.06;99077.23;1772819;79;21041;-39
2021/10/12 09:56:12;;;;;;;;;;;;;;;16.41;41.95;99070.09;1775495;81;22225;-39
2021/10/12 09:58:39;;;;;;;20.95;13.50;;;;;;;16.41;42.55;99064.61;1772919;81;20121;-39
2021/10/12 10:01:08;;;;;;;21.82;12.95;;;;;;;16.41;42.91;99064.61;1772720;81;21325;-39
2021/10/12 10:03:36;;;;;;;21.52;13.22;;;;;;;16.59;42.54;99057.63;1772625;81;21057;-39
2021/10/12 10:06:13;;;;;;;22.22;13.85;;;;;;;16.69;41.76;99052.04;1780552;79;21035;-39
2021/10/12 10:08:47;;;;;;;18.83;12.17;;;;;;;16.74;41.79;99051.59;1771918;80;21122;-39
2021/10/12 10:11:13;;;;;;;19.90;12.00;;;;;;;16.82;41.64;99053.65;1785958;80;20993;-40
2021/10/12 10:13:41;;;;;;;23.18;13.55;;;;;;;16.84;41.69;99052.66;1783697;80;21074;-39
2021/10/12 10:16:11;;;;;;;18.70;11.70;;;;;;;16.83;41.75;99057.36;1779243;80;20939;-39
2021/10/12 10:18:39;;;;;;;21.25;11.03;;;;;;;16.79;41.81;99051.15;1779057;80;21031;-39
2021/10/12 10:21:06;;;;;;;19.52;10.88;;;;;;;16.75;42.03;99042.80;1779129;80;22294;-39
2021/10/12 10:24:09;;;;;;;19.10;11.03;;;;;;;16.73;41.52;99045.93;1779025;80;20999;-39
2021/10/12 10:26:35;;;;;;;15.05;10.30;;;;;;;16.69;41.51;99041.09;1778088;80;20987;-39
2021/10/12 10:29:36;;;;;;;21.23;12.78;;;;;;;16.63;41.88;99044.08;1779280;80;21036;-39
2021/10/12 10:32:00;;;;;;;18.73;12.30;;;;;;;16.62;41.91;99037.05;1778216;80;21537;-39
2021/10/12 10:34:40;;;;;;;20.43;12.15;;;;;;;16.56;42.00;99029.06;1777797;80;21802;-39
2021/10/12 10:37:25;;;;;;;20.10;14.00;;;;;;;16.53;41.89;99029.88;1772734;81;21480;-39
2021/10/12 10:40:02;;;;;;;19.82;13.05;;;;;;;16.50;42.15;99023.28;1772512;81;21017;-39
2021/10/12 10:42:42;;;;;;;28.95;13.62;;;;;;;16.49;42.43;99025.05;1772609;80;21033;-39
2021/10/12 10:45:10;;;;;;;22.50;14.38;;;;;;;16.49;42.25;99022.31;1760421;81;21578;-39
2021/10/12 10:47:47;;;;;;;22.13;12.68;;;;;;;16.47;42.35;99026.03;1766265;81;21106;-39
2021/10/12 10:50:28;;;;;;;33.00;13.18;;;;;;;16.44;42.77;99023.53;1766162;81;21111;-39
2021/10/12 10:53:03;;;;;;;23.15;11.95;;;;;;;16.43;42.21;99028.03;1766333;81;21036;-39
2021/10/12 10:55:34;;;;;;;24.07;13.88;;;;;;;16.36;42.44;99018.55;1766275;81;21080;-39
2021/10/12 10:58:20;;;;;;;19.15;12.13;;;;;;;16.34;42.73;99009.95;1766240;81;21084;-39
2021/10/12 11:00:54;;;;;;;22.55;12.43;;;;;;;16.33;42.83;99010.54;1766508;81;21098;-39
2021/10/12 11:03:39;;;;;;;18.87;11.73;;;;;;;16.36;42.80;99008.97;1766682;81;20976;-39
2021/10/12 11:06:17;;;;;;;17.52;9.90;;;;;;;16.40;42.36;99005.59;1766567;81;21041;-39
2021/10/12 11:09:01;;;;;;;15.63;9.20;;;;;;;16.34;41.95;99003.89;1766505;81;21562;-39
2021/10/12 11:11:34;;;;;;;12.78;8.60;;;;;;;16.23;41.89;98998.33;1766473;81;21040;-39
2021/10/12 11:14:03;;;;;;;13.85;8.58;;;;;;;16.13;41.79;99000.57;1766268;81;21132;-39
2021/10/12 11:16:36;;;;;;;15.90;10.45;;;;;;;16.04;41.73;98999.09;1772525;81;21006;-39
2021/10/12 11:19:04;;;;;;;24.87;12.37;;;;;;;15.97;42.44;98997.02;1772408;80;21649;-39
2021/10/12 11:21:32;;;;;;;20.17;12.63;;;;;;;15.93;42.68;98991.56;1772733;81;20946;-39
2021/10/12 11:24:02;;;;;;;17.70;11.93;;;;;;;15.89;42.78;98994.14;1772828;81;21021;-39
2021/10/12 11:27:17;;;;;;;12.98;9.75;;;;;;;15.90;43.34;98985.55;1805134;78;23349;-39
2021/10/12 11:29:44;;;;;;;18.35;11.38;;;;;;;15.84;43.25;98991.26;1779135;79;21013;-39
2021/10/12 11:32:11;;;;;;;19.02;11.88;;;;;;;15.85;42.91;98992.81;1779960;79;21857;-39